Time;durP1;ratioP1;P1;durP2;ratioP2;P2;SDS_P1;SDS_P2;PMS_P1;PMS_P2;Temp;Humidity;BMP_temperature;BMP_pressure;BME280_temperature;BME280_humidity;BME280_pressure;Samples;Min_cycle;Max_cycle;Signal;HPM_P1;HPM_P2
2022/11/22 00:00:43;;;;;;;;;;;;;;;25.05;45.86;92403.38;4988423;28;7165;-61
2022/11/22 00:03:11;;;;;;;;;;;;;;;25.02;46.09;92401.75;4985841;28;7322;-61
2022/11/22 00:05:39;;;;;;;;;;;;;;;25.01;45.56;92395.50;4985786;28;7039;-61
2022/11/22 00:08:05;;;;;;;;;;;;;;;25.06;45.81;92407.59;5001613;28;7480;-61
2022/11/22 00:10:33;;;;;;;;;;;;;;;25.05;46.30;92414.38;4984302;28;9048;-61
2022/11/22 00:13:02;;;;;;;;;;;;;;;25.06;46.23;92415.84;4991348;28;7623;-61
2022/11/22 00:15:39;;;;;;;;;;;;;;;25.04;45.61;92419.16;4992870;28;7050;-61
2022/11/22 00:18:15;;;;;;;;;;;;;;;25.02;45.88;92421.00;4984044;28;7037;-61
2022/11/22 00:20:44;;;;;;;;;;;;;;;25.01;45.68;92430.53;4983606;28;7671;-61
2022/11/22 00:23:12;;;;;;;;;;;;;;;24.99;46.09;92424.88;4992667;28;8847;-61
2022/11/22 00:25:38;;;;;;;;;;;;;;;24.98;45.44;92420.63;4988888;28;7316;-61
2022/11/22 00:28:10;;;;;;;;;;;;;;;24.95;45.88;92421.72;4984272;28;7216;-61
2022/11/22 00:30:40;;;;;;;;;;;;;;;24.95;45.83;92421.72;5005850;28;7262;-61
2022/11/22 00:33:06;;;;;;;;;;;;;;;24.91;46.07;92422.13;4990688;28;7023;-61
2022/11/22 00:35:34;;;;;;;;;;;;;;;24.93;46.59;92430.53;4990598;28;7113;-61
2022/11/22 00:38:02;;;;;;;;;;;;;;;24.92;46.27;92429.09;4994076;28;7206;-61
2022/11/22 00:40:34;;;;;;;;;;;;;;;24.93;46.08;92424.31;4989771;28;7036;-61
2022/11/22 00:43:00;;;;;;;;;;;;;;;24.96;46.53;92428.72;4990350;28;7244;-61
2022/11/22 00:45:28;;;;;;;;;;;;;;;24.94;45.68;92429.28;4997406;28;7236;-61
2022/11/22 00:47:54;;;;;;;;;;;;;;;24.91;45.85;92426.88;4982886;28;7384;-62
2022/11/22 00:50:21;;;;;;;;;;;;;;;24.90;46.09;92431.66;4980801;28;7002;-61
2022/11/22 00:52:47;;;;;;;;;;;;;;;24.94;45.86;92434.78;5004355;28;7415;-61
2022/11/22 00:55:19;;;;;;;;;;;;;;;24.95;45.83;92438.22;4984047;28;7373;-61
2022/11/22 00:57:45;;;;;;;;;;;;;;;24.94;46.20;92443.03;4982370;28;7038;-61
2022/11/22 01:00:11;;;;;;;;;;;;;;;24.86;46.40;92436.06;4975865;28;7109;-61
2022/11/22 01:02:40;;;;;;;;;;;;;;;24.91;45.71;92448.88;4993314;28;7529;-61
2022/11/22 01:05:06;;;;;;;;;;;;;;;24.87;46.47;92445.78;4992276;28;7336;-61
2022/11/22 01:07:37;;;;;;;;;;;;;;;24.86;46.31;92442.28;4995831;28;7339;-61
2022/11/22 01:10:14;;;;;;;;;;;;;;;24.84;46.07;92433.16;4988707;28;7107;-61
2022/11/22 01:12:48;;;;;;;;;;;;;;;24.83;45.97;92432.41;4989401;28;7302;-61
2022/11/22 01:15:21;;;;;;;;;;;;;;;24.86;45.99;92431.28;4985454;28;9846;-61
2022/11/22 01:17:52;;;;;;;;;;;;;;;24.91;46.76;92440.63;4987829;28;7169;-61
2022/11/22 01:20:45;;;;;;;;;;;;;;;24.94;45.77;92436.78;4981539;28;8975;-61
2022/11/22 01:23:27;;;;;;;;;;;;;;;24.84;45.62;92433.16;4955547;28;8485;-61
2022/11/22 01:25:53;;;;;;;;;;;;;;;24.83;46.33;92437.16;4946203;28;7289;-61
2022/11/22 01:28:30;;;;;;;;;;;;;;;24.80;46.28;92443.75;4957144;28;7012;-61
2022/11/22 01:31:17;;;;;;;;;;;;;;;24.79;46.20;92443.03;4937558;28;9065;-61
2022/11/22 01:33:44;;;;;;;;;;;;;;;24.81;46.00;92451.47;4934406;28;7056;-61
2022/11/22 01:36:10;;;;;;;;;;;;;;;24.80;46.14;92447.25;4948013;28;7486;-61
2022/11/22 01:38:36;;;;;;;;;;;;;;;24.81;46.00;92445.97;4952078;28;7386;-61
2022/11/22 01:41:05;;;;;;;;;;;;;;;24.81;46.52;92445.25;4940458;28;7153;-61
2022/11/22 01:43:39;;;;;;;;;;;;;;;24.80;46.18;92450.00;4943516;28;7285;-61
2022/11/22 01:46:14;;;;;;;;;;;;;;;24.79;46.43;92458.81;4934232;28;7684;-61
2022/11/22 01:49:00;;;;;;;;;;;;;;;24.78;46.14;92452.56;4947129;28;7030;-61
2022/11/22 01:51:38;;;;;;;;;;;;;;;24.75;46.85;92463.94;4936751;28;9052;-61
2022/11/22 01:54:14;;;;;;;;;;;;;;;24.76;46.04;92459.91;4940010;28;7036;-61
2022/11/22 01:56:45;;;;;;;;;;;;;;;24.77;46.38;92458.63;4944550;28;6982;-61
2022/11/22 01:59:18;;;;;;;;;;;;;;;24.78;45.83;92451.81;4940960;28;9597;-61
2022/11/22 02:01:44;;;;;;;;;;;;;;;24.75;46.42;92464.66;4983845;28;7303;-61
2022/11/22 02:04:14;;;;;;;;;;;;;;;24.73;46.15;92456.19;4984608;28;7275;-61
2022/11/22 02:06:58;;;;;;;;;;;;;;;24.73;46.45;92465.19;4981741;28;9102;-61
2022/11/22 02:09:27;;;;;;;;;;;;;;;24.71;46.00;92456.75;4978841;28;9404;-61
2022/11/22 02:11:59;;;;;;;;;;;;;;;24.72;46.68;92460.25;4987222;28;8751;-63
2022/11/22 02:14:43;;;;;;;;;;;;;;;24.71;46.41;92456.75;4983319;28;7309;-61
2022/11/22 02:17:09;;;;;;;;;;;;;;;24.71;46.19;92456.03;4978879;28;9399;-61
2022/11/22 02:19:41;;;;;;;;;;;;;;;24.71;45.74;92458.78;4988950;28;7756;-61
2022/11/22 02:22:19;;;;;;;;;;;;;;;24.72;46.10;92465.75;4999317;28;7824;-61
2022/11/22 02:25:02;;;;;;;;;;;;;;;24.71;45.87;92465.00;4992502;28;7258;-61
2022/11/22 02:27:28;;;;;;;;;;;;;;;24.73;46.06;92462.44;4992951;28;9105;-61
2022/11/22 02:29:53;;;;;;;;;;;;;;;24.71;45.80;92465.00;5006424;28;7036;-61
2022/11/22 02:32:24;;;;;;;;;;;;;;;24.70;46.43;92474.56;4998848;28;7096;-61
2022/11/22 02:34:51;;;;;;;;;;;;;;;24.67;46.63;92469.41;4997741;28;7267;-61
2022/11/22 02:37:32;;;;;;;;;;;;;;;24.73;46.80;92475.44;5003330;28;7129;-61
2022/11/22 02:40:16;;;;;;;;;;;;;;;24.71;46.04;92480.75;4999921;28;7114;-61
2022/11/22 02:42:59;;;;;;;;;;;;;;;24.70;46.40;92487.56;4985664;28;7496;-61
2022/11/22 02:45:35;;;;;;;;;;;;;;;24.69;45.90;92486.09;4983996;28;8448;-61
2022/11/22 02:48:16;;;;;;;;;;;;;;;24.68;47.06;92485.34;5003545;28;9320;-61
2022/11/22 02:50:46;;;;;;;;;;;;;;;24.66;46.80;92485.16;4989402;28;7221;-61
2022/11/22 02:53:13;;;;;;;;;;;;;;;24.69;46.52;92484.06;4996575;28;6861;-61
2022/11/22 02:55:39;;;;;;;;;;;;;;;24.69;46.49;92477.84;4985568;28;9460;-61
2022/11/22 02:58:05;;;;;;;;;;;;;;;24.70;45.90;92480.06;4978314;28;7283;-61
2022/11/22 03:00:33;;;;;;;;;;;;;;;24.70;46.19;92469.06;4991293;28;9343;-61
2022/11/22 03:02:59;;;;;;;;;;;;;;;24.70;46.15;92473.81;4987902;28;7123;-61
2022/11/22 03:05:25;;;;;;;;;;;;;;;24.69;46.50;92480.59;4991447;28;7052;-61
2022/11/22 03:07:54;;;;;;;;;;;;;;;24.68;46.61;92476.38;4989718;28;7278;-61
2022/11/22 03:10:21;;;;;;;;;;;;;;;24.66;46.41;92479.66;4996366;28;7282;-61
2022/11/22 03:12:53;;;;;;;;;;;;;;;24.67;46.32;92475.66;4994371;28;7062;-61
2022/11/22 03:15:19;;;;;;;;;;;;;;;24.68;46.33;92482.59;4999043;28;9401;-62
2022/11/22 03:17:56;;;;;;;;;;;;;;;24.68;46.54;92476.38;4995524;28;8770;-61
2022/11/22 03:20:30;;;;;;;;;;;;;;;24.68;46.13;92484.63;4982100;28;6883;-62
2022/11/22 03:22:59;;;;;;;;;;;;;;;24.69;45.84;92478.56;5003965;28;7044;-61
2022/11/22 03:25:35;;;;;;;;;;;;;;;24.68;45.83;92476.38;4978354;28;9412;-62
2022/11/22 03:28:16;;;;;;;;;;;;;;;24.67;46.15;92475.66;4996300;28;7035;-61
2022/11/22 03:31:03;;;;;;;;;;;;;;;24.68;45.96;92476.38;4983911;28;6984;-62
2022/11/22 03:33:29;;;;;;;;;;;;;;;24.68;46.23;92468.84;4999735;28;7671;-61
2022/11/22 03:36:00;;;;;;;;;;;;;;;24.66;46.49;92468.66;4999179;28;7926;-62
2022/11/22 03:38:27;;;;;;;;;;;;;;;24.64;46.42;92463.00;4977800;28;8570;-62
2022/11/22 03:40:53;;;;;;;;;;;;;;;24.66;46.50;92467.94;4979347;28;7527;-62
2022/11/22 03:43:25;;;;;;;;;;;;;;;24.64;46.11;92470.53;4965276;28;7265;-62
2022/11/22 03:45:57;;;;;;;;;;;;;;;24.65;46.51;92466.47;4985908;28;7048;-62
2022/11/22 03:48:33;;;;;;;;;;;;;;;24.65;46.07;92471.97;5003829;28;7476;-62
2022/11/22 03:51:16;;;;;;;;;;;;;;;24.65;46.71;92471.97;4982752;28;9719;-61
2022/11/22 03:53:52;;;;;;;;;;;;;;;24.65;46.07;92474.72;4984705;28;7426;-62
2022/11/22 03:56:22;;;;;;;;;;;;;;;24.66;46.54;92479.66;4990557;28;7116;-62
2022/11/22 03:58:51;;;;;;;;;;;;;;;24.67;46.09;92481.13;4986253;28;7258;-62
2022/11/22 04:01:17;;;;;;;;;;;;;;;24.65;46.29;92489.22;5005441;28;7243;-61
2022/11/22 04:03:42;;;;;;;;;;;;;;;24.63;46.30;92491.78;4978665;28;9315;-61
2022/11/22 04:06:08;;;;;;;;;;;;;;;24.66;46.17;92485.16;4982732;28;7114;-61
2022/11/22 04:08:39;;;;;;;;;;;;;;;24.63;45.83;92491.03;4979322;28;7118;-62
2022/11/22 04:11:05;;;;;;;;;;;;;;;24.60;46.20;92492.88;4982410;28;7204;-61
2022/11/22 04:16:22;;;;;;;;;;;;;;;24.59;46.55;92502.41;4987437;28;7033;-62
2022/11/22 04:18:50;;;;;;;;;;;;;;;24.61;46.54;92505.34;4979748;28;6945;-61
2022/11/22 04:21:35;;;;;;;;;;;;;;;24.64;45.95;92511.75;4990916;28;7130;-62
2022/11/22 04:26:57;;;;;;;;;;;;;;;24.64;47.06;92528.97;4988741;28;9219;-62
2022/11/22 04:29:31;;;;;;;;;;;;;;;24.60;46.38;92517.59;4985461;28;7272;-62
2022/11/22 04:34:54;;;;;;;;;;;;;;;24.64;46.11;92509.72;4992578;28;8812;-62
2022/11/22 04:37:34;;;;;;;;;;;;;;;24.61;46.38;92505.34;4991045;28;7455;-62
2022/11/22 04:40:04;;;;;;;;;;;;;;;24.62;46.57;92514.31;4987065;28;7016;-62
2022/11/22 04:45:47;;;;;;;;;;;;;;;24.60;46.45;92509.34;4947118;28;8698;-62
2022/11/22 04:48:22;;;;;;;;;;;;;;;24.59;46.32;92504.41;4943891;28;7077;-62
2022/11/22 04:53:45;;;;;;;;;;;;;;;24.57;46.74;92509.72;4948849;28;7345;-61
2022/11/22 04:56:40;;;;;;;;;;;;;;;24.59;46.03;92512.66;4926774;28;7056;-61
2022/11/22 04:59:06;;;;;;;;;;;;;;;24.57;46.81;92512.47;4894881;29;6972;-61
2022/11/22 05:01:32;;;;;;;;;;;;;;;24.58;46.03;92517.41;4891549;29;7266;-61
2022/11/22 05:03:57;;;;;;;;;;;;;;;24.59;46.49;92515.41;4880583;29;7111;-61
2022/11/22 05:06:23;;;;;;;;;;;;;;;24.58;46.47;92522.91;4893249;29;7623;-62
2022/11/22 05:08:53;;;;;;;;;;;;;;;24.58;46.47;92522.19;4873486;29;7187;-62
2022/11/22 05:11:29;;;;;;;;;;;;;;;24.59;46.00;92523.66;4892681;29;7229;-62
2022/11/22 05:13:55;;;;;;;;;;;;;;;24.58;46.44;92517.41;4894403;29;8870;-62
2022/11/22 05:16:22;;;;;;;;;;;;;;;24.59;46.34;92518.91;4895881;29;9023;-62
2022/11/22 05:19:04;;;;;;;;;;;;;;;24.60;46.21;92519.59;4881980;29;7138;-61
2022/11/22 05:21:34;;;;;;;;;;;;;;;24.59;47.07;92523.66;4906904;29;7250;-62
2022/11/22 05:24:06;;;;;;;;;;;;;;;24.57;46.75;92518.72;4907539;29;7035;-61
2022/11/22 05:26:41;;;;;;;;;;;;;;;24.59;46.30;92529.88;4898457;29;7352;-62
2022/11/22 05:29:19;;;;;;;;;;;;;;;24.58;46.43;92527.66;4914271;29;8754;-62
2022/11/22 05:31:56;;;;;;;;;;;;;;;24.57;46.25;92537.22;4913649;29;7205;-61
2022/11/22 05:34:30;;;;;;;;;;;;;;;24.57;46.24;92543.44;4895857;28;10315;-61
2022/11/22 05:36:58;;;;;;;;;;;;;;;24.59;46.39;92538.13;5005723;28;7208;-61
2022/11/22 05:39:23;;;;;;;;;;;;;;;24.59;46.56;92535.38;4991166;28;7342;-62
2022/11/22 05:41:59;;;;;;;;;;;;;;;24.55;46.53;92540.53;4984961;28;7397;-62
2022/11/22 05:44:26;;;;;;;;;;;;;;;24.57;46.20;92545.47;4988871;28;7266;-62
2022/11/22 05:46:53;;;;;;;;;;;;;;;24.57;46.02;92551.69;4990266;28;7068;-62
2022/11/22 05:49:19;;;;;;;;;;;;;;;24.57;46.83;92564.69;4990336;28;9106;-62
2022/11/22 05:51:49;;;;;;;;;;;;;;;24.57;46.78;92559.94;4986338;28;7382;-62
2022/11/22 05:54:16;;;;;;;;;;;;;;;24.57;45.85;92559.94;5000896;28;9461;-62
2022/11/22 05:56:47;;;;;;;;;;;;;;;24.62;47.54;92553.50;4985061;28;7502;-62
2022/11/22 05:59:13;;;;;;;;;;;;;;;24.68;46.60;92558.84;4978593;28;9399;-62
2022/11/22 06:01:39;;;;;;;;;;;;;;;24.73;47.85;92572.41;4979988;28;7315;-61
2022/11/22 06:04:07;;;;;;;;;;;;;;;24.77;47.78;92577.59;4984848;28;7016;-62
2022/11/22 06:06:38;;;;;;;;;;;;;;;24.80;47.75;92581.22;4980781;28;8420;-62
2022/11/22 06:09:07;;;;;;;;;;;;;;;24.80;47.33;92584.72;4981736;28;7220;-62
2022/11/22 06:11:39;;;;;;;;;;;;;;;24.81;46.60;92588.94;4989231;28;7095;-62
2022/11/22 06:14:07;;;;;;;;;;;;;;;24.84;46.38;92600.88;4981458;28;7134;-62
2022/11/22 06:16:34;;;;;;;;;;;;;;;24.85;46.00;92600.31;4991498;28;7040;-62
2022/11/22 06:19:02;;;;;;;;;;;;;;;24.84;45.47;92598.84;4998479;28;7201;-62
2022/11/22 06:21:29;;;;;;;;;;;;;;;24.76;45.45;92586.38;4981839;28;8956;-62
2022/11/22 06:24:02;;;;;;;;;;;;;;;24.78;45.59;92592.06;4981063;28;7050;-62
2022/11/22 06:26:36;;;;;;;;;;;;;;;24.77;46.05;92599.59;4981805;28;9136;-61
2022/11/22 06:29:09;;;;;;;;;;;;;;;24.77;46.08;92596.84;4980230;28;7241;-62
2022/11/22 06:31:35;;;;;;;;;;;;;;;24.80;46.17;92600.47;4984923;28;7311;-62
2022/11/22 06:34:10;;;;;;;;;;;;;;;24.80;45.74;92608.72;4984547;28;7004;-62
2022/11/22 06:36:38;;;;;;;;;;;;;;;24.80;45.75;92620.47;4986957;28;9006;-62
2022/11/22 06:39:04;;;;;;;;;;;;;;;24.79;45.71;92618.28;4996755;28;9012;-62
2022/11/22 06:41:37;;;;;;;;;;;;;;;24.79;45.68;92632.03;4979420;28;7518;-62
2022/11/22 06:44:07;;;;;;;;;;;;;;;24.82;46.25;92633.66;4997833;28;9347;-62
2022/11/22 06:46:40;;;;;;;;;;;;;;;24.84;45.40;92637.34;4999207;28;8449;-62
2022/11/22 06:49:06;;;;;;;;;;;;;;;24.87;45.48;92636.25;4982868;28;10102;-62
2022/11/22 06:51:38;;;;;;;;;;;;;;;24.89;44.70;92643.94;4965910;28;8330;-62
2022/11/22 06:54:13;;;;;;;;;;;;;;;24.86;44.77;92643.03;4996311;28;7648;-62
2022/11/22 06:56:45;;;;;;;;;;;;;;;24.83;44.60;92652.38;5005855;28;7234;-62
2022/11/22 06:59:13;;;;;;;;;;;;;;;24.79;45.15;92657.50;4983274;28;9763;-62
2022/11/22 07:01:41;;;;;;;;;;;;;;;24.81;46.03;92654.19;4982852;28;7252;-61
2022/11/22 07:04:07;;;;;;;;;;;;;;;24.80;45.93;92658.22;4986359;28;7206;-62
2022/11/22 07:06:37;;;;;;;;;;;;;;;24.80;45.21;92658.22;4980130;28;8082;-62
2022/11/22 07:09:12;;;;;;;;;;;;;;;24.79;45.05;92651.28;4985416;28;7053;-62
2022/11/22 07:11:44;;;;;;;;;;;;;;;24.80;45.26;92658.22;4984796;28;7017;-62
2022/11/22 07:14:14;;;;;;;;;;;;;;;24.81;45.30;92649.44;4989375;28;9031;-62
2022/11/22 07:16:49;;;;;;;;;;;;;;;24.81;45.53;92660.44;4987627;28;7648;-61
2022/11/22 07:19:21;;;;;;;;;;;;;;;24.81;45.87;92665.94;4997124;28;6902;-61
2022/11/22 07:21:49;;;;;;;;;;;;;;;24.80;45.74;92666.47;4987031;28;10120;-62
2022/11/22 07:24:16;;;;;;;;;;;;;;;24.82;45.66;92666.66;4984204;28;7014;-62
2022/11/22 07:26:47;;;;;;;;;;;;;;;24.81;45.73;92671.44;4989143;28;7152;-62
2022/11/22 07:29:19;;;;;;;;;;;;;;;24.83;46.05;92668.13;4983075;28;7677;-62
2022/11/22 07:31:46;;;;;;;;;;;;;;;24.81;45.51;92670.69;4986477;28;8696;-62
2022/11/22 07:34:18;;;;;;;;;;;;;;;24.81;45.80;92670.69;4982527;28;9009;-62
2022/11/22 07:36:44;;;;;;;;;;;;;;;24.82;45.18;92669.41;4989198;28;8974;-62
2022/11/22 07:39:10;;;;;;;;;;;;;;;24.85;45.19;92673.81;4995907;28;8585;-61
2022/11/22 07:41:48;;;;;;;;;;;;;;;24.88;46.06;92670.72;4995505;28;7011;-62
2022/11/22 07:44:14;;;;;;;;;;;;;;;24.87;45.21;92669.25;4999765;28;9013;-62
2022/11/22 07:47:09;;;;;;;;;;;;;;;24.92;45.48;92675.88;4990578;28;7018;-62
2022/11/22 07:49:45;;;;;;;;;;;;;;;24.89;45.36;92668.69;4953420;28;7307;-62
2022/11/22 07:52:40;;;;;;;;;;;;;;;24.90;45.77;92662.66;4932836;29;7272;-62
2022/11/22 07:55:14;;;;;;;;;;;;;;;24.91;45.42;92669.63;4910328;29;7332;-62
2022/11/22 07:57:40;;;;;;;;;;;;;;;24.89;45.57;92668.69;4913086;29;7112;-61
2022/11/22 08:00:07;;;;;;;;;;;;;;;24.82;46.18;92670.16;4895096;29;7189;-62
2022/11/22 08:02:36;;;;;;;;;;;;;;;24.83;46.07;92674.38;4901025;29;7156;-62
2022/11/22 08:05:02;;;;;;;;;;;;;;;24.83;45.99;92679.88;4896624;29;9344;-61
2022/11/22 08:08:01;;;;;;;;;;;;;;;24.84;45.37;92686.84;4899448;29;7751;-62
2022/11/22 08:10:37;;;;;;;;;;;;;;;24.84;46.21;92678.59;4837781;29;7443;-62
2022/11/22 08:13:18;;;;;;;;;;;;;;;24.85;45.74;92684.81;4825097;29;7417;-62
2022/11/22 08:15:47;;;;;;;;;;;;;;;24.86;45.22;92678.06;4839147;29;7269;-62
2022/11/22 08:18:23;;;;;;;;;;;;;;;24.82;45.09;92675.66;4842413;29;7187;-62
2022/11/22 08:20:49;;;;;;;;;;;;;;;24.84;45.14;92680.63;4842277;29;7428;-62
2022/11/22 08:23:16;;;;;;;;;;;;;;;24.85;45.21;92682.06;4823743;29;7063;-61
2022/11/22 08:25:42;;;;;;;;;;;;;;;24.88;45.48;92687.19;4845245;29;9194;-62
2022/11/22 08:28:10;;;;;;;;;;;;;;;24.86;46.06;92683.56;4857151;29;7397;-62
2022/11/22 08:30:46;;;;;;;;;;;;;;;24.87;45.99;92685.00;4851988;29;9364;-62
2022/11/22 08:33:19;;;;;;;;;;;;;;;24.87;45.20;92693.25;4930606;29;7100;-62
2022/11/22 08:35:49;;;;;;;;;;;;;;;24.85;45.02;92676.56;4921545;29;8254;-62
2022/11/22 08:38:14;;;;;;;;;;;;;;;24.85;45.54;92674.56;4916438;29;7243;-62
2022/11/22 08:40:41;;;;;;;;;;;;;;;24.87;45.54;92679.50;4917284;29;7073;-62
2022/11/22 08:43:09;;;;;;;;;;;;;;;24.86;45.07;92686.31;4907618;29;9126;-62
2022/11/22 08:45:36;;;;;;;;;;;;;;;24.83;45.33;92687.38;4945246;28;7048;-62
2022/11/22 08:48:13;;;;;;;;;;;;;;;24.82;45.99;92694.91;4985829;28;8325;-61
2022/11/22 08:50:58;;;;;;;;;;;;;;;24.84;45.28;92688.88;4991110;28;7211;-61
2022/11/22 08:53:46;;;;;;;;;;;;;;;24.82;45.19;92694.16;4980821;28;10416;-62
2022/11/22 08:56:14;;;;;;;;;;;;;;;24.82;45.16;92705.91;4984473;28;9086;-62
2022/11/22 08:58:40;;;;;;;;;;;;;;;24.83;45.60;92704.63;5004937;28;7132;-62
2022/11/22 09:01:10;;;;;;;;;;;;;;;24.81;45.85;92709.94;4990551;28;7365;-62
2022/11/22 09:03:36;;;;;;;;;;;;;;;24.81;45.86;92711.94;4988706;28;8875;-62
2022/11/22 09:06:05;;;;;;;;;;;;;;;24.80;45.77;92702.97;4992570;28;7029;-62
2022/11/22 09:08:35;;;;;;;;;;;;;;;24.80;45.35;92707.72;4991206;28;7225;-61
2022/11/22 09:11:04;;;;;;;;;;;;;;;24.78;46.17;92710.28;4984041;28;7128;-62
2022/11/22 09:13:33;;;;;;;;;;;;;;;24.78;45.85;92707.53;4978282;28;8648;-61
2022/11/22 09:16:10;;;;;;;;;;;;;;;24.82;45.94;92705.16;5001230;28;8489;-62
2022/11/22 09:18:36;;;;;;;;;;;;;;;24.82;46.23;92710.66;5002061;28;8729;-62
2022/11/22 09:21:07;;;;;;;;;;;;;;;24.84;45.99;92724.63;4982794;28;7081;-62
2022/11/22 09:23:38;;;;;;;;;;;;;;;24.84;45.65;92719.81;4989154;28;8314;-62
2022/11/22 09:26:20;;;;;;;;;;;;;;;24.87;45.82;92726.25;4998813;28;7113;-61
2022/11/22 09:28:47;;;;;;;;;;;;;;;24.86;45.54;92731.00;4978947;28;7140;-61
2022/11/22 09:31:31;;;;;;;;;;;;;;;24.83;45.96;92723.88;4989336;28;7243;-62
2022/11/22 09:33:58;;;;;;;;;;;;;;;24.83;45.74;92732.13;4984721;28;7033;-62
2022/11/22 09:36:34;;;;;;;;;;;;;;;24.84;45.69;92724.63;4989425;28;7119;-62
2022/11/22 09:39:37;;;;;;;;;;;;;;;24.91;45.30;92724.63;4982036;28;7611;-61
2022/11/22 09:42:42;;;;;;;;;;;;;;;24.92;45.17;92739.84;4986496;28;7226;-61
2022/11/22 09:45:14;;;;;;;;;;;;;;;24.91;45.58;92729.38;4972294;28;7297;-62
2022/11/22 09:48:13;;;;;;;;;;;;;;;24.89;45.19;92726.44;4976632;28;7180;-61
2022/11/22 09:51:02;;;;;;;;;;;;;;;24.89;45.56;92734.69;4975275;28;7034;-61
2022/11/22 09:53:50;;;;;;;;;;;;;;;24.90;46.15;92736.91;4963405;28;10518;-62
2022/11/22 09:56:20;;;;;;;;;;;;;;;24.90;45.39;92747.19;4980999;28;7615;-61
2022/11/22 09:59:16;;;;;;;;;;;;;;;24.92;45.26;92747.38;4973396;28;8971;-61
2022/11/22 10:01:52;;;;;;;;;;;;;;;24.92;46.14;92747.38;4979250;28;7030;-61
2022/11/22 10:04:46;;;;;;;;;;;;;;;24.90;45.66;92749.94;4983875;28;7171;-61
2022/11/22 10:07:36;;;;;;;;;;;;;;;24.89;46.04;92748.44;4985891;28;7571;-61
2022/11/22 10:10:23;;;;;;;;;;;;;;;24.87;45.58;92748.25;4982553;28;7509;-62
2022/11/22 10:13:02;;;;;;;;;;;;;;;24.87;45.86;92751.00;4988987;28;7205;-62
2022/11/22 10:15:40;;;;;;;;;;;;;;;24.90;46.05;92752.69;4987005;28;7094;-62
2022/11/22 10:18:38;;;;;;;;;;;;;;;24.88;45.14;92755.94;4988513;28;7330;-62
2022/11/22 10:21:11;;;;;;;;;;;;;;;24.86;45.70;92760.56;5001923;28;6998;-62
2022/11/22 10:23:41;;;;;;;;;;;;;;;24.89;45.32;92762.19;5000276;28;7353;-62
2022/11/22 10:26:32;;;;;;;;;;;;;;;24.89;45.56;92764.94;5003405;28;10330;-61
2022/11/22 10:29:35;;;;;;;;;;;;;;;24.91;45.02;92765.88;5006421;28;7361;-61
2022/11/22 10:32:41;;;;;;;;;;;;;;;24.92;45.11;92755.63;5007780;28;7650;-62
2022/11/22 10:35:38;;;;;;;;;;;;;;;24.91;45.92;92757.63;4932779;28;7325;-62
2022/11/22 10:38:30;;;;;;;;;;;;;;;24.91;45.41;92752.13;4929524;29;7033;-62
2022/11/22 10:41:33;;;;;;;;;;;;;;;24.91;45.19;92754.13;4928112;29;9584;-62
2022/11/22 10:44:26;;;;;;;;;;;;;;;24.87;45.58;92754.50;4912796;29;8829;-62
2022/11/22 10:47:34;;;;;;;;;;;;;;;24.88;45.53;92758.00;4922806;28;7365;-62
2022/11/22 10:50:53;;;;;;;;;;;;;;;24.89;45.84;92759.44;4909816;29;7457;-61
2022/11/22 10:53:51;;;;;;;;;;;;;;;24.90;45.59;92752.69;4857219;29;7271;-62
2022/11/22 10:56:50;;;;;;;;;;;;;;;24.86;45.64;92755.06;4872924;29;7254;-61
2022/11/22 10:59:51;;;;;;;;;;;;;;;24.89;45.24;92748.44;4854358;29;7490;-62
2022/11/22 11:02:35;;;;;;;;;;;;;;;24.86;45.38;92746.81;4840675;29;7059;-62
2022/11/22 11:05:10;;;;;;;;;;;;;;;24.84;45.67;92752.81;4856373;29;7081;-61
2022/11/22 11:07:51;;;;;;;;;;;;;;;24.84;45.58;92752.13;4855811;29;8223;-61
2022/11/22 11:10:22;;;;;;;;;;;;;;;24.83;45.96;92751.38;4855292;29;6867;-61
2022/11/22 11:13:21;;;;;;;;;;;;;;;24.84;45.96;92746.63;4910713;29;7901;-62
2022/11/22 11:16:19;;;;;;;;;;;;;;;24.83;45.20;92745.13;4905263;29;7457;-61
2022/11/22 11:18:54;;;;;;;;;;;;;;;24.83;45.43;92750.63;4910184;29;7318;-61
2022/11/22 11:21:22;;;;;;;;;;;;;;;24.80;45.20;92752.44;4910793;29;9071;-62
2022/11/22 11:23:56;;;;;;;;;;;;;;;24.78;45.28;92752.25;4912250;29;7000;-62
2022/11/22 11:26:30;;;;;;;;;;;;;;;24.79;45.84;92751.00;4920733;28;8326;-62
2022/11/22 11:29:33;;;;;;;;;;;;;;;24.79;45.34;92745.50;4946753;28;7227;-61
2022/11/22 11:32:11;;;;;;;;;;;;;;;24.80;45.96;92746.94;4954640;28;7094;-61
2022/11/22 11:35:14;;;;;;;;;;;;;;;24.79;45.22;92742.00;4963797;28;9662;-62
2022/11/22 11:37:49;;;;;;;;;;;;;;;24.78;45.27;92743.28;4930775;28;7003;-61
2022/11/22 11:40:31;;;;;;;;;;;;;;;24.76;45.78;92741.06;4926421;29;8937;-61
2022/11/22 11:43:19;;;;;;;;;;;;;;;24.80;45.19;92730.44;4932852;29;7277;-61
2022/11/22 11:45:46;;;;;;;;;;;;;;;24.79;45.46;92734.50;4945686;29;7355;-62
2022/11/22 11:49:03;;;;;;;;;;;;;;;24.81;45.12;92731.19;4948823;29;7168;-61
2022/11/22 11:51:47;;;;;;;;;;;;;;;24.80;45.46;92724.22;4922181;29;7260;-61
2022/11/22 11:54:19;;;;;;;;;;;;;;;24.80;45.44;92733.19;4904248;29;8829;-62
2022/11/22 11:57:03;;;;;;;;;;;;;;;24.78;45.50;92722.03;4917270;29;8189;-62
2022/11/22 11:59:37;;;;;;;;;;;;;;;24.79;45.36;92725.50;4920675;29;9906;-62
2022/11/22 12:02:11;;;;;;;;;;;;;;;24.82;45.66;92721.66;4928922;29;7485;-61
2022/11/22 12:04:58;;;;;;;;;;;;;;;24.85;45.96;92721.31;4908003;29;7312;-61
2022/11/22 12:07:35;;;;;;;;;;;;;;;24.89;45.69;92716.19;4926647;29;8651;-62
2022/11/22 12:10:25;;;;;;;;;;;;;;;24.84;45.36;92713.63;4911661;29;7261;-61
2022/11/22 12:13:16;;;;;;;;;;;;;;;24.84;45.46;92705.38;4936779;28;7281;-62
2022/11/22 12:15:51;;;;;;;;;;;;;;;24.78;45.66;92711.03;4960698;28;7199;-61
2022/11/22 12:18:26;;;;;;;;;;;;;;;24.76;45.39;92708.09;4961755;28;8023;-62
2022/11/22 12:20:59;;;;;;;;;;;;;;;24.76;46.22;92702.59;4942985;28;7324;-61
2022/11/22 12:23:45;;;;;;;;;;;;;;;24.76;46.17;92702.59;4950185;28;7060;-62
2022/11/22 12:26:23;;;;;;;;;;;;;;;24.79;45.38;92703.50;4960290;28;7224;-61
2022/11/22 12:28:53;;;;;;;;;;;;;;;24.80;46.09;92699.47;4987343;28;7358;-61
2022/11/22 12:31:54;;;;;;;;;;;;;;;24.80;45.74;92702.97;4985354;28;7304;-61
2022/11/22 12:34:23;;;;;;;;;;;;;;;24.81;44.76;92693.44;4987064;28;9120;-61
2022/11/22 12:37:11;;;;;;;;;;;;;;;24.83;45.44;92692.88;5003091;28;7168;-61
2022/11/22 12:39:49;;;;;;;;;;;;;;;24.84;45.22;92686.84;4985313;28;7267;-61
2022/11/22 12:42:32;;;;;;;;;;;;;;;24.87;45.04;92690.50;4980079;28;6992;-62
2022/11/22 12:45:26;;;;;;;;;;;;;;;24.89;45.45;92676.94;4980428;28;9389;-62
2022/11/22 12:48:02;;;;;;;;;;;;;;;24.89;45.06;92680.44;4965763;28;7049;-62
2022/11/22 12:50:49;;;;;;;;;;;;;;;24.94;45.40;92678.78;4968553;28;9371;-61
2022/11/22 12:53:46;;;;;;;;;;;;;;;24.93;44.60;92672.56;4956582;28;7335;-61
2022/11/22 12:56:20;;;;;;;;;;;;;;;24.93;44.54;92675.31;4914330;29;7168;-61
2022/11/22 12:59:10;;;;;;;;;;;;;;;24.95;44.65;92663.75;4922255;29;7241;-61
2022/11/22 13:01:35;;;;;;;;;;;;;;;24.96;44.59;92667.97;4930964;29;8331;-62
2022/11/22 13:04:10;;;;;;;;;;;;;;;24.94;44.50;92671.28;4915994;29;7385;-62
2022/11/22 13:06:50;;;;;;;;;;;;;;;24.95;44.99;92672.00;4910537;29;9437;-61
2022/11/22 13:09:25;;;;;;;;;;;;;;;24.96;45.06;92681.72;4923750;29;7598;-62
2022/11/22 13:12:05;;;;;;;;;;;;;;;24.96;45.35;92681.72;4925685;29;7388;-61
2022/11/22 13:14:44;;;;;;;;;;;;;;;24.95;45.38;92681.00;4914849;29;7023;-62
2022/11/22 13:17:15;;;;;;;;;;;;;;;24.94;44.84;92678.78;4932781;29;7141;-61
2022/11/22 13:19:52;;;;;;;;;;;;;;;24.93;45.35;92680.06;4917652;29;7340;-62
2022/11/22 13:22:42;;;;;;;;;;;;;;;24.93;45.26;92682.81;4926800;29;7033;-61
2022/11/22 13:25:37;;;;;;;;;;;;;;;24.92;45.27;92686.88;4908455;29;7321;-61
2022/11/22 13:28:15;;;;;;;;;;;;;;;24.90;45.53;92689.44;4924190;28;7114;-62
2022/11/22 13:31:04;;;;;;;;;;;;;;;24.92;44.68;92698.59;4913733;29;7410;-62
2022/11/22 13:33:32;;;;;;;;;;;;;;;24.91;45.38;92690.88;4972041;28;7132;-62
2022/11/22 13:36:35;;;;;;;;;;;;;;;24.91;45.52;92691.63;4999492;28;7029;-62
2022/11/22 13:39:13;;;;;;;;;;;;;;;24.88;44.71;92692.00;5003488;28;9339;-61
2022/11/22 13:41:55;;;;;;;;;;;;;;;24.86;44.77;92678.78;4982132;28;7049;-61
2022/11/22 13:44:35;;;;;;;;;;;;;;;24.88;44.80;92687.19;5005534;28;8219;-61
2022/11/22 13:47:04;;;;;;;;;;;;;;;24.87;44.75;92685.00;5002106;28;7102;-61
2022/11/22 13:49:44;;;;;;;;;;;;;;;24.87;44.82;92685.75;4982806;28;8088;-61
2022/11/22 13:52:16;;;;;;;;;;;;;;;24.89;45.22;92688.69;4981960;28;9864;-61
2022/11/22 13:54:45;;;;;;;;;;;;;;;24.90;45.52;92694.94;4983817;28;7769;-61